sensor_id;sensor_type;location;lat;lon;timestamp;P1;durP1;ratioP1;P2;durP2;ratioP2
11113;SDS011;5610;52.154;9.198;2022-10-31T00:00:36;10.40;;;7.00;;
11113;SDS011;5610;52.154;9.198;2022-10-31T00:03:24;10.20;;;6.93;;
11113;SDS011;5610;52.154;9.198;2022-10-31T00:06:10;10.67;;;6.90;;
11113;SDS011;5610;52.154;9.198;2022-10-31T00:08:56;16.00;;;7.27;;
11113;SDS011;5610;52.154;9.198;2022-10-31T00:11:43;11.70;;;7.13;;
11113;SDS011;5610;52.154;9.198;2022-10-31T00:14:28;12.70;;;7.83;;
11113;SDS011;5610;52.154;9.198;2022-10-31T00:17:15;12.70;;;9.40;;
11113;SDS011;5610;52.154;9.198;2022-10-31T00:20:00;12.97;;;7.33;;
11113;SDS011;5610;52.154;9.198;2022-10-31T00:22:45;10.63;;;7.13;;
11113;SDS011;5610;52.154;9.198;2022-10-31T00:25:32;17.33;;;7.80;;
11113;SDS011;5610;52.154;9.198;2022-10-31T00:28:19;12.10;;;8.97;;
11113;SDS011;5610;52.154;9.198;2022-10-31T00:31:06;15.93;;;8.63;;
11113;SDS011;5610;52.154;9.198;2022-10-31T00:33:54;12.67;;;8.40;;
11113;SDS011;5610;52.154;9.198;2022-10-31T00:36:39;14.70;;;10.20;;
11113;SDS011;5610;52.154;9.198;2022-10-31T00:39:28;16.13;;;12.13;;
11113;SDS011;5610;52.154;9.198;2022-10-31T00:42:14;16.37;;;11.73;;
11113;SDS011;5610;52.154;9.198;2022-10-31T00:45:00;14.17;;;10.87;;
11113;SDS011;5610;52.154;9.198;2022-10-31T00:47:46;14.73;;;10.00;;
11113;SDS011;5610;52.154;9.198;2022-10-31T00:50:33;13.40;;;9.37;;
11113;SDS011;5610;52.154;9.198;2022-10-31T00:53:18;13.20;;;10.40;;
11113;SDS011;5610;52.154;9.198;2022-10-31T00:56:04;14.47;;;9.77;;
11113;SDS011;5610;52.154;9.198;2022-10-31T00:58:50;12.93;;;10.10;;
11113;SDS011;5610;52.154;9.198;2022-10-31T01:01:37;13.63;;;9.83;;
11113;SDS011;5610;52.154;9.198;2022-10-31T01:04:23;9.83;;;8.70;;
11113;SDS011;5610;52.154;9.198;2022-10-31T01:07:10;12.40;;;9.30;;
11113;SDS011;5610;52.154;9.198;2022-10-31T01:09:56;15.73;;;9.40;;
11113;SDS011;5610;52.154;9.198;2022-10-31T01:12:41;11.10;;;8.87;;
11113;SDS011;5610;52.154;9.198;2022-10-31T01:15:28;13.70;;;9.33;;
11113;SDS011;5610;52.154;9.198;2022-10-31T01:18:13;15.40;;;9.03;;
11113;SDS011;5610;52.154;9.198;2022-10-31T01:21:03;11.50;;;9.40;;
11113;SDS011;5610;52.154;9.198;2022-10-31T01:23:52;12.10;;;9.03;;
11113;SDS011;5610;52.154;9.198;2022-10-31T01:26:38;12.37;;;9.53;;
11113;SDS011;5610;52.154;9.198;2022-10-31T01:29:24;13.53;;;9.80;;
11113;SDS011;5610;52.154;9.198;2022-10-31T01:32:09;15.80;;;9.83;;
11113;SDS011;5610;52.154;9.198;2022-10-31T01:34:54;11.13;;;9.93;;
11113;SDS011;5610;52.154;9.198;2022-10-31T01:37:40;18.77;;;10.27;;
11113;SDS011;5610;52.154;9.198;2022-10-31T01:40:29;12.20;;;9.50;;
11113;SDS011;5610;52.154;9.198;2022-10-31T01:43:15;13.10;;;9.60;;
11113;SDS011;5610;52.154;9.198;2022-10-31T01:46:00;15.90;;;9.47;;
11113;SDS011;5610;52.154;9.198;2022-10-31T01:48:46;15.77;;;10.57;;
11113;SDS011;5610;52.154;9.198;2022-10-31T01:51:32;22.43;;;9.23;;
11113;SDS011;5610;52.154;9.198;2022-10-31T01:54:21;14.43;;;9.07;;
11113;SDS011;5610;52.154;9.198;2022-10-31T01:57:12;11.10;;;9.27;;
11113;SDS011;5610;52.154;9.198;2022-10-31T02:00:00;15.37;;;10.90;;
11113;SDS011;5610;52.154;9.198;2022-10-31T02:02:56;11.00;;;9.67;;
11113;SDS011;5610;52.154;9.198;2022-10-31T02:05:43;11.80;;;9.53;;
11113;SDS011;5610;52.154;9.198;2022-10-31T02:08:29;12.27;;;10.07;;
11113;SDS011;5610;52.154;9.198;2022-10-31T02:11:16;12.20;;;10.37;;
11113;SDS011;5610;52.154;9.198;2022-10-31T02:14:03;15.57;;;11.83;;
11113;SDS011;5610;52.154;9.198;2022-10-31T02:16:48;18.40;;;12.70;;
11113;SDS011;5610;52.154;9.198;2022-10-31T02:19:34;15.70;;;12.10;;
11113;SDS011;5610;52.154;9.198;2022-10-31T02:22:35;17.53;;;12.97;;
11113;SDS011;5610;52.154;9.198;2022-10-31T02:25:33;17.10;;;12.50;;
11113;SDS011;5610;52.154;9.198;2022-10-31T02:28:51;14.43;;;11.90;;
11113;SDS011;5610;52.154;9.198;2022-10-31T02:31:51;18.37;;;12.70;;
11113;SDS011;5610;52.154;9.198;2022-10-31T02:34:45;15.90;;;12.93;;
11113;SDS011;5610;52.154;9.198;2022-10-31T02:37:38;16.67;;;13.57;;
11113;SDS011;5610;52.154;9.198;2022-10-31T02:40:32;17.67;;;13.17;;
11113;SDS011;5610;52.154;9.198;2022-10-31T02:43:49;23.23;;;15.57;;
11113;SDS011;5610;52.154;9.198;2022-10-31T02:46:47;24.30;;;16.53;;
11113;SDS011;5610;52.154;9.198;2022-10-31T02:49:38;19.90;;;15.17;;
11113;SDS011;5610;52.154;9.198;2022-10-31T02:52:28;20.10;;;16.37;;
11113;SDS011;5610;52.154;9.198;2022-10-31T02:58:36;18.77;;;15.47;;
11113;SDS011;5610;52.154;9.198;2022-10-31T03:01:28;20.93;;;15.23;;
11113;SDS011;5610;52.154;9.198;2022-10-31T03:04:31;17.40;;;14.80;;
11113;SDS011;5610;52.154;9.198;2022-10-31T03:07:33;19.30;;;14.60;;
11113;SDS011;5610;52.154;9.198;2022-10-31T03:10:27;16.97;;;13.10;;
11113;SDS011;5610;52.154;9.198;2022-10-31T03:13:21;16.97;;;14.50;;
11113;SDS011;5610;52.154;9.198;2022-10-31T03:16:13;23.40;;;15.93;;
11113;SDS011;5610;52.154;9.198;2022-10-31T03:19:03;21.20;;;17.70;;
11113;SDS011;5610;52.154;9.198;2022-10-31T03:21:53;17.60;;;15.23;;
11113;SDS011;5610;52.154;9.198;2022-10-31T03:24:42;19.40;;;17.20;;
11113;SDS011;5610;52.154;9.198;2022-10-31T03:27:29;19.33;;;16.20;;
11113;SDS011;5610;52.154;9.198;2022-10-31T03:30:18;24.20;;;17.10;;
11113;SDS011;5610;52.154;9.198;2022-10-31T03:33:13;21.60;;;18.77;;
11113;SDS011;5610;52.154;9.198;2022-10-31T03:36:04;21.93;;;19.53;;
11113;SDS011;5610;52.154;9.198;2022-10-31T03:38:53;22.10;;;18.50;;
11113;SDS011;5610;52.154;9.198;2022-10-31T03:41:41;24.67;;;19.40;;
11113;SDS011;5610;52.154;9.198;2022-10-31T03:44:30;22.50;;;18.57;;
11113;SDS011;5610;52.154;9.198;2022-10-31T03:47:19;29.30;;;20.60;;
11113;SDS011;5610;52.154;9.198;2022-10-31T03:50:06;30.53;;;20.40;;
11113;SDS011;5610;52.154;9.198;2022-10-31T03:52:54;29.03;;;21.93;;
11113;SDS011;5610;52.154;9.198;2022-10-31T03:55:47;28.67;;;20.60;;
11113;SDS011;5610;52.154;9.198;2022-10-31T03:58:36;26.83;;;20.40;;
11113;SDS011;5610;52.154;9.198;2022-10-31T04:01:25;23.93;;;20.30;;
11113;SDS011;5610;52.154;9.198;2022-10-31T04:04:14;32.67;;;20.97;;
11113;SDS011;5610;52.154;9.198;2022-10-31T04:07:00;22.80;;;17.80;;
11113;SDS011;5610;52.154;9.198;2022-10-31T04:09:47;24.43;;;18.67;;
11113;SDS011;5610;52.154;9.198;2022-10-31T04:12:38;26.30;;;19.27;;
11113;SDS011;5610;52.154;9.198;2022-10-31T04:15:37;22.00;;;16.00;;
11113;SDS011;5610;52.154;9.198;2022-10-31T04:18:24;23.43;;;16.50;;
11113;SDS011;5610;52.154;9.198;2022-10-31T04:21:10;20.27;;;14.73;;
11113;SDS011;5610;52.154;9.198;2022-10-31T04:23:56;16.73;;;12.13;;
11113;SDS011;5610;52.154;9.198;2022-10-31T04:26:43;16.30;;;13.90;;
11113;SDS011;5610;52.154;9.198;2022-10-31T04:29:32;14.97;;;13.27;;
11113;SDS011;5610;52.154;9.198;2022-10-31T04:32:17;15.40;;;12.77;;
11113;SDS011;5610;52.154;9.198;2022-10-31T04:35:02;18.60;;;14.50;;
11113;SDS011;5610;52.154;9.198;2022-10-31T04:37:48;15.00;;;12.80;;
11113;SDS011;5610;52.154;9.198;2022-10-31T04:40:34;17.20;;;14.00;;
11113;SDS011;5610;52.154;9.198;2022-10-31T04:43:50;20.00;;;15.60;;
11113;SDS011;5610;52.154;9.198;2022-10-31T04:46:38;22.93;;;16.63;;
11113;SDS011;5610;52.154;9.198;2022-10-31T04:49:24;26.23;;;17.13;;
11113;SDS011;5610;52.154;9.198;2022-10-31T04:52:10;21.37;;;15.90;;
11113;SDS011;5610;52.154;9.198;2022-10-31T04:54:55;26.87;;;19.77;;
11113;SDS011;5610;52.154;9.198;2022-10-31T04:58:00;24.37;;;17.90;;
11113;SDS011;5610;52.154;9.198;2022-10-31T05:00:46;26.43;;;18.00;;
11113;SDS011;5610;52.154;9.198;2022-10-31T05:03:33;22.30;;;17.40;;
11113;SDS011;5610;52.154;9.198;2022-10-31T05:06:18;20.80;;;16.60;;
11113;SDS011;5610;52.154;9.198;2022-10-31T05:09:04;23.40;;;18.23;;
11113;SDS011;5610;52.154;9.198;2022-10-31T05:11:49;23.90;;;18.03;;
11113;SDS011;5610;52.154;9.198;2022-10-31T05:15:07;27.90;;;19.50;;
11113;SDS011;5610;52.154;9.198;2022-10-31T05:18:11;26.50;;;20.07;;
11113;SDS011;5610;52.154;9.198;2022-10-31T05:21:17;24.27;;;19.17;;
11113;SDS011;5610;52.154;9.198;2022-10-31T05:24:07;19.33;;;17.30;;
11113;SDS011;5610;52.154;9.198;2022-10-31T05:26:56;25.40;;;20.80;;
11113;SDS011;5610;52.154;9.198;2022-10-31T05:29:41;23.10;;;18.97;;
11113;SDS011;5610;52.154;9.198;2022-10-31T05:32:27;20.97;;;15.73;;
11113;SDS011;5610;52.154;9.198;2022-10-31T05:35:39;18.27;;;14.50;;
11113;SDS011;5610;52.154;9.198;2022-10-31T05:38:41;20.60;;;15.97;;
11113;SDS011;5610;52.154;9.198;2022-10-31T05:41:44;18.93;;;16.10;;
11113;SDS011;5610;52.154;9.198;2022-10-31T05:44:34;23.00;;;18.53;;
11113;SDS011;5610;52.154;9.198;2022-10-31T05:47:41;15.77;;;13.63;;
11113;SDS011;5610;52.154;9.198;2022-10-31T05:50:47;18.63;;;15.00;;
11113;SDS011;5610;52.154;9.198;2022-10-31T05:53:33;18.30;;;14.90;;
11113;SDS011;5610;52.154;9.198;2022-10-31T05:56:20;19.73;;;14.73;;
11113;SDS011;5610;52.154;9.198;2022-10-31T05:59:05;15.87;;;14.10;;
11113;SDS011;5610;52.154;9.198;2022-10-31T06:01:50;15.10;;;13.53;;
11113;SDS011;5610;52.154;9.198;2022-10-31T06:05:08;17.13;;;14.37;;
11113;SDS011;5610;52.154;9.198;2022-10-31T06:07:53;16.27;;;14.40;;
11113;SDS011;5610;52.154;9.198;2022-10-31T06:10:39;26.27;;;18.87;;
11113;SDS011;5610;52.154;9.198;2022-10-31T06:13:26;21.30;;;15.63;;
11113;SDS011;5610;52.154;9.198;2022-10-31T06:16:18;19.33;;;15.50;;
11113;SDS011;5610;52.154;9.198;2022-10-31T06:19:03;21.10;;;16.87;;
11113;SDS011;5610;52.154;9.198;2022-10-31T06:21:49;27.87;;;21.90;;
11113;SDS011;5610;52.154;9.198;2022-10-31T06:24:34;23.93;;;17.87;;
11113;SDS011;5610;52.154;9.198;2022-10-31T06:27:35;49.57;;;20.47;;
11113;SDS011;5610;52.154;9.198;2022-10-31T06:30:29;22.87;;;18.80;;
11113;SDS011;5610;52.154;9.198;2022-10-31T06:33:14;27.47;;;19.10;;
11113;SDS011;5610;52.154;9.198;2022-10-31T06:36:09;22.23;;;19.30;;
11113;SDS011;5610;52.154;9.198;2022-10-31T06:38:54;20.13;;;17.73;;
11113;SDS011;5610;52.154;9.198;2022-10-31T06:41:41;19.10;;;17.10;;
11113;SDS011;5610;52.154;9.198;2022-10-31T06:44:28;23.13;;;18.53;;
11113;SDS011;5610;52.154;9.198;2022-10-31T06:47:14;22.83;;;18.50;;
11113;SDS011;5610;52.154;9.198;2022-10-31T06:50:12;21.03;;;18.83;;
11113;SDS011;5610;52.154;9.198;2022-10-31T06:52:58;19.33;;;17.10;;
11113;SDS011;5610;52.154;9.198;2022-10-31T06:55:43;19.20;;;17.20;;
11113;SDS011;5610;52.154;9.198;2022-10-31T06:58:30;19.90;;;17.27;;
11113;SDS011;5610;52.154;9.198;2022-10-31T07:01:18;24.03;;;18.13;;
11113;SDS011;5610;52.154;9.198;2022-10-31T07:04:08;18.73;;;16.90;;
11113;SDS011;5610;52.154;9.198;2022-10-31T07:06:53;17.67;;;15.87;;
11113;SDS011;5610;52.154;9.198;2022-10-31T07:09:39;18.70;;;16.67;;
11113;SDS011;5610;52.154;9.198;2022-10-31T07:12:26;20.70;;;18.00;;
11113;SDS011;5610;52.154;9.198;2022-10-31T07:15:15;19.63;;;16.43;;
11113;SDS011;5610;52.154;9.198;2022-10-31T07:18:01;22.23;;;18.00;;
11113;SDS011;5610;52.154;9.198;2022-10-31T07:20:49;22.63;;;18.03;;
11113;SDS011;5610;52.154;9.198;2022-10-31T07:23:35;22.30;;;19.50;;
11113;SDS011;5610;52.154;9.198;2022-10-31T07:26:50;25.50;;;19.57;;
11113;SDS011;5610;52.154;9.198;2022-10-31T07:29:35;23.10;;;18.97;;
11113;SDS011;5610;52.154;9.198;2022-10-31T07:32:21;26.93;;;20.10;;
11113;SDS011;5610;52.154;9.198;2022-10-31T07:35:12;25.80;;;18.93;;
11113;SDS011;5610;52.154;9.198;2022-10-31T07:38:09;22.97;;;19.40;;
11113;SDS011;5610;52.154;9.198;2022-10-31T07:40:56;25.60;;;21.33;;
11113;SDS011;5610;52.154;9.198;2022-10-31T07:43:42;23.33;;;20.87;;
11113;SDS011;5610;52.154;9.198;2022-10-31T07:46:46;25.87;;;20.20;;
11113;SDS011;5610;52.154;9.198;2022-10-31T07:49:59;24.93;;;20.00;;
11113;SDS011;5610;52.154;9.198;2022-10-31T07:53:04;34.03;;;20.33;;
11113;SDS011;5610;52.154;9.198;2022-10-31T07:56:12;21.33;;;19.07;;
11113;SDS011;5610;52.154;9.198;2022-10-31T07:58:58;24.20;;;20.87;;
11113;SDS011;5610;52.154;9.198;2022-10-31T08:01:43;24.60;;;19.23;;
11113;SDS011;5610;52.154;9.198;2022-10-31T08:04:54;27.33;;;20.50;;
11113;SDS011;5610;52.154;9.198;2022-10-31T08:07:58;23.67;;;20.60;;
11113;SDS011;5610;52.154;9.198;2022-10-31T08:10:44;33.47;;;23.70;;
11113;SDS011;5610;52.154;9.198;2022-10-31T08:13:31;30.50;;;20.77;;
11113;SDS011;5610;52.154;9.198;2022-10-31T08:16:16;29.87;;;21.97;;
11113;SDS011;5610;52.154;9.198;2022-10-31T08:19:10;23.20;;;18.57;;
11113;SDS011;5610;52.154;9.198;2022-10-31T08:21:56;24.40;;;19.83;;
11113;SDS011;5610;52.154;9.198;2022-10-31T08:24:42;27.37;;;18.03;;
11113;SDS011;5610;52.154;9.198;2022-10-31T08:27:28;24.53;;;21.13;;
11113;SDS011;5610;52.154;9.198;2022-10-31T08:30:18;23.73;;;19.53;;
11113;SDS011;5610;52.154;9.198;2022-10-31T08:33:20;23.10;;;20.00;;
11113;SDS011;5610;52.154;9.198;2022-10-31T08:36:24;24.30;;;21.73;;
11113;SDS011;5610;52.154;9.198;2022-10-31T08:39:09;25.70;;;23.00;;
11113;SDS011;5610;52.154;9.198;2022-10-31T08:41:56;30.03;;;23.67;;
11113;SDS011;5610;52.154;9.198;2022-10-31T08:44:41;31.40;;;23.37;;
11113;SDS011;5610;52.154;9.198;2022-10-31T08:47:28;27.27;;;22.47;;
11113;SDS011;5610;52.154;9.198;2022-10-31T08:50:14;30.53;;;22.60;;
11113;SDS011;5610;52.154;9.198;2022-10-31T08:53:05;27.00;;;22.47;;
11113;SDS011;5610;52.154;9.198;2022-10-31T08:55:53;24.80;;;21.03;;
11113;SDS011;5610;52.154;9.198;2022-10-31T08:58:42;24.23;;;20.87;;
11113;SDS011;5610;52.154;9.198;2022-10-31T09:01:28;30.03;;;21.30;;
11113;SDS011;5610;52.154;9.198;2022-10-31T09:04:15;26.90;;;18.90;;
11113;SDS011;5610;52.154;9.198;2022-10-31T09:07:00;22.17;;;19.80;;
11113;SDS011;5610;52.154;9.198;2022-10-31T09:09:46;25.70;;;19.50;;
11113;SDS011;5610;52.154;9.198;2022-10-31T09:12:31;25.50;;;18.50;;
11113;SDS011;5610;52.154;9.198;2022-10-31T09:15:26;22.50;;;18.10;;
11113;SDS011;5610;52.154;9.198;2022-10-31T09:18:31;19.40;;;17.23;;
11113;SDS011;5610;52.154;9.198;2022-10-31T09:21:18;22.10;;;18.50;;
11113;SDS011;5610;52.154;9.198;2022-10-31T09:24:04;21.03;;;17.60;;
11113;SDS011;5610;52.154;9.198;2022-10-31T09:26:50;23.63;;;18.57;;
11113;SDS011;5610;52.154;9.198;2022-10-31T09:29:42;22.67;;;19.27;;
11113;SDS011;5610;52.154;9.198;2022-10-31T09:32:29;22.93;;;19.20;;
11113;SDS011;5610;52.154;9.198;2022-10-31T09:35:14;25.70;;;18.73;;
11113;SDS011;5610;52.154;9.198;2022-10-31T09:38:03;25.30;;;18.70;;
11113;SDS011;5610;52.154;9.198;2022-10-31T09:40:54;25.40;;;17.40;;
11113;SDS011;5610;52.154;9.198;2022-10-31T09:43:43;21.60;;;18.23;;
11113;SDS011;5610;52.154;9.198;2022-10-31T09:46:38;22.77;;;18.43;;
11113;SDS011;5610;52.154;9.198;2022-10-31T09:49:37;19.80;;;17.70;;
11113;SDS011;5610;52.154;9.198;2022-10-31T09:52:36;24.27;;;18.57;;
11113;SDS011;5610;52.154;9.198;2022-10-31T09:55:30;22.73;;;17.63;;
11113;SDS011;5610;52.154;9.198;2022-10-31T09:58:19;19.77;;;16.87;;
11113;SDS011;5610;52.154;9.198;2022-10-31T10:01:09;19.17;;;17.17;;
11113;SDS011;5610;52.154;9.198;2022-10-31T10:04:10;19.93;;;17.07;;
11113;SDS011;5610;52.154;9.198;2022-10-31T10:07:22;21.43;;;17.20;;
11113;SDS011;5610;52.154;9.198;2022-10-31T10:10:38;19.37;;;15.93;;
11113;SDS011;5610;52.154;9.198;2022-10-31T10:13:44;23.50;;;16.90;;
11113;SDS011;5610;52.154;9.198;2022-10-31T10:16:53;20.70;;;17.50;;
11113;SDS011;5610;52.154;9.198;2022-10-31T10:19:53;24.03;;;18.47;;
11113;SDS011;5610;52.154;9.198;2022-10-31T10:22:57;21.33;;;17.80;;
11113;SDS011;5610;52.154;9.198;2022-10-31T10:26:00;20.43;;;18.00;;
11113;SDS011;5610;52.154;9.198;2022-10-31T10:28:49;19.23;;;17.23;;
11113;SDS011;5610;52.154;9.198;2022-10-31T10:31:40;18.97;;;16.87;;
11113;SDS011;5610;52.154;9.198;2022-10-31T10:34:30;24.03;;;17.53;;
11113;SDS011;5610;52.154;9.198;2022-10-31T10:37:24;20.43;;;18.07;;
11113;SDS011;5610;52.154;9.198;2022-10-31T10:40:15;24.57;;;18.53;;
11113;SDS011;5610;52.154;9.198;2022-10-31T10:43:10;20.63;;;17.60;;
11113;SDS011;5610;52.154;9.198;2022-10-31T10:46:16;19.37;;;15.77;;
11113;SDS011;5610;52.154;9.198;2022-10-31T10:49:22;16.80;;;15.00;;
11113;SDS011;5610;52.154;9.198;2022-10-31T10:52:17;20.33;;;16.23;;
11113;SDS011;5610;52.154;9.198;2022-10-31T10:55:13;22.93;;;17.37;;
11113;SDS011;5610;52.154;9.198;2022-10-31T10:58:08;22.07;;;16.87;;
11113;SDS011;5610;52.154;9.198;2022-10-31T11:00:54;21.30;;;16.07;;
11113;SDS011;5610;52.154;9.198;2022-10-31T11:03:40;21.17;;;17.10;;
11113;SDS011;5610;52.154;9.198;2022-10-31T11:06:26;19.37;;;17.23;;
11113;SDS011;5610;52.154;9.198;2022-10-31T11:09:11;17.37;;;15.57;;
11113;SDS011;5610;52.154;9.198;2022-10-31T11:11:56;16.80;;;14.83;;
11113;SDS011;5610;52.154;9.198;2022-10-31T11:14:45;18.87;;;15.63;;
11113;SDS011;5610;52.154;9.198;2022-10-31T11:17:33;19.67;;;15.10;;
11113;SDS011;5610;52.154;9.198;2022-10-31T11:20:24;17.67;;;15.23;;
11113;SDS011;5610;52.154;9.198;2022-10-31T11:23:16;17.43;;;15.30;;
11113;SDS011;5610;52.154;9.198;2022-10-31T11:26:04;22.40;;;17.27;;
11113;SDS011;5610;52.154;9.198;2022-10-31T11:28:55;24.70;;;16.33;;
11113;SDS011;5610;52.154;9.198;2022-10-31T11:31:42;21.73;;;16.83;;
11113;SDS011;5610;52.154;9.198;2022-10-31T11:34:30;20.27;;;14.60;;
11113;SDS011;5610;52.154;9.198;2022-10-31T11:37:18;21.27;;;15.60;;
11113;SDS011;5610;52.154;9.198;2022-10-31T11:40:14;18.53;;;14.60;;
11113;SDS011;5610;52.154;9.198;2022-10-31T11:43:02;16.90;;;14.17;;
11113;SDS011;5610;52.154;9.198;2022-10-31T11:45:47;17.97;;;13.13;;
11113;SDS011;5610;52.154;9.198;2022-10-31T11:48:34;21.83;;;14.20;;
11113;SDS011;5610;52.154;9.198;2022-10-31T11:51:20;17.30;;;13.53;;
11113;SDS011;5610;52.154;9.198;2022-10-31T11:54:14;16.67;;;14.00;;
11113;SDS011;5610;52.154;9.198;2022-10-31T11:57:05;16.90;;;13.07;;
11113;SDS011;5610;52.154;9.198;2022-10-31T12:00:17;13.57;;;11.77;;
11113;SDS011;5610;52.154;9.198;2022-10-31T12:03:10;13.53;;;10.93;;
11113;SDS011;5610;52.154;9.198;2022-10-31T12:06:02;14.07;;;10.33;;
11113;SDS011;5610;52.154;9.198;2022-10-31T12:08:49;15.07;;;10.00;;
11113;SDS011;5610;52.154;9.198;2022-10-31T12:11:38;10.60;;;9.47;;
11113;SDS011;5610;52.154;9.198;2022-10-31T12:14:34;13.87;;;10.00;;
11113;SDS011;5610;52.154;9.198;2022-10-31T12:17:31;13.03;;;9.63;;
11113;SDS011;5610;52.154;9.198;2022-10-31T12:20:26;12.77;;;8.90;;
11113;SDS011;5610;52.154;9.198;2022-10-31T12:23:22;11.30;;;8.80;;
11113;SDS011;5610;52.154;9.198;2022-10-31T12:26:21;14.20;;;8.80;;
11113;SDS011;5610;52.154;9.198;2022-10-31T12:29:14;15.33;;;8.77;;
11113;SDS011;5610;52.154;9.198;2022-10-31T12:32:15;14.03;;;9.23;;
11113;SDS011;5610;52.154;9.198;2022-10-31T12:35:20;8.80;;;7.90;;
11113;SDS011;5610;52.154;9.198;2022-10-31T12:38:29;9.50;;;7.43;;
11113;SDS011;5610;52.154;9.198;2022-10-31T12:41:36;10.63;;;7.73;;
11113;SDS011;5610;52.154;9.198;2022-10-31T12:44:34;10.17;;;7.53;;
11113;SDS011;5610;52.154;9.198;2022-10-31T12:47:50;9.93;;;7.57;;
11113;SDS011;5610;52.154;9.198;2022-10-31T12:50:55;9.90;;;7.90;;
11113;SDS011;5610;52.154;9.198;2022-10-31T12:53:52;12.70;;;7.97;;
11113;SDS011;5610;52.154;9.198;2022-10-31T12:56:54;14.47;;;7.93;;
11113;SDS011;5610;52.154;9.198;2022-10-31T12:59:50;12.93;;;8.40;;
11113;SDS011;5610;52.154;9.198;2022-10-31T13:02:41;9.90;;;7.77;;
11113;SDS011;5610;52.154;9.198;2022-10-31T13:05:33;8.60;;;7.60;;
11113;SDS011;5610;52.154;9.198;2022-10-31T13:08:22;10.77;;;7.93;;
11113;SDS011;5610;52.154;9.198;2022-10-31T13:11:14;9.40;;;7.60;;
11113;SDS011;5610;52.154;9.198;2022-10-31T13:14:02;11.67;;;8.40;;
11113;SDS011;5610;52.154;9.198;2022-10-31T13:16:52;10.23;;;7.60;;
11113;SDS011;5610;52.154;9.198;2022-10-31T13:19:41;8.70;;;7.43;;
11113;SDS011;5610;52.154;9.198;2022-10-31T13:22:30;11.10;;;6.80;;
11113;SDS011;5610;52.154;9.198;2022-10-31T13:25:20;11.40;;;7.80;;
11113;SDS011;5610;52.154;9.198;2022-10-31T13:28:12;10.07;;;7.03;;
11113;SDS011;5610;52.154;9.198;2022-10-31T13:31:10;9.93;;;7.13;;
11113;SDS011;5610;52.154;9.198;2022-10-31T13:33:56;11.33;;;8.00;;
11113;SDS011;5610;52.154;9.198;2022-10-31T13:36:46;10.67;;;6.50;;
11113;SDS011;5610;52.154;9.198;2022-10-31T13:39:47;9.90;;;6.60;;
11113;SDS011;5610;52.154;9.198;2022-10-31T13:42:43;8.90;;;6.53;;
11113;SDS011;5610;52.154;9.198;2022-10-31T13:45:48;10.80;;;7.73;;
11113;SDS011;5610;52.154;9.198;2022-10-31T13:48:36;12.90;;;7.93;;
11113;SDS011;5610;52.154;9.198;2022-10-31T13:51:25;11.20;;;7.73;;
11113;SDS011;5610;52.154;9.198;2022-10-31T13:54:19;12.57;;;8.50;;
11113;SDS011;5610;52.154;9.198;2022-10-31T13:57:06;13.83;;;8.30;;
11113;SDS011;5610;52.154;9.198;2022-10-31T14:00:00;10.40;;;8.40;;
11113;SDS011;5610;52.154;9.198;2022-10-31T14:02:57;10.23;;;7.70;;
11113;SDS011;5610;52.154;9.198;2022-10-31T14:05:42;11.33;;;7.77;;
11113;SDS011;5610;52.154;9.198;2022-10-31T14:08:39;11.50;;;8.67;;
11113;SDS011;5610;52.154;9.198;2022-10-31T14:11:31;10.10;;;8.20;;
11113;SDS011;5610;52.154;9.198;2022-10-31T14:14:17;11.30;;;8.43;;
11113;SDS011;5610;52.154;9.198;2022-10-31T14:17:04;9.87;;;7.77;;
11113;SDS011;5610;52.154;9.198;2022-10-31T14:20:00;10.57;;;8.73;;
11113;SDS011;5610;52.154;9.198;2022-10-31T14:23:25;12.17;;;9.27;;
11113;SDS011;5610;52.154;9.198;2022-10-31T14:26:21;10.70;;;9.00;;
11113;SDS011;5610;52.154;9.198;2022-10-31T14:29:22;10.77;;;8.27;;
11113;SDS011;5610;52.154;9.198;2022-10-31T14:32:15;12.50;;;9.53;;
11113;SDS011;5610;52.154;9.198;2022-10-31T14:35:12;15.47;;;10.03;;
11113;SDS011;5610;52.154;9.198;2022-10-31T14:38:03;12.03;;;9.90;;
11113;SDS011;5610;52.154;9.198;2022-10-31T14:41:04;15.73;;;10.40;;
11113;SDS011;5610;52.154;9.198;2022-10-31T14:44:10;12.23;;;10.00;;
11113;SDS011;5610;52.154;9.198;2022-10-31T14:47:11;13.60;;;9.83;;
11113;SDS011;5610;52.154;9.198;2022-10-31T14:53:18;12.40;;;10.17;;
11113;SDS011;5610;52.154;9.198;2022-10-31T14:56:09;14.03;;;9.50;;
11113;SDS011;5610;52.154;9.198;2022-10-31T14:58:56;12.13;;;10.13;;
11113;SDS011;5610;52.154;9.198;2022-10-31T15:01:49;13.87;;;10.80;;
11113;SDS011;5610;52.154;9.198;2022-10-31T15:04:40;12.23;;;9.70;;
11113;SDS011;5610;52.154;9.198;2022-10-31T15:07:29;15.40;;;9.93;;
11113;SDS011;5610;52.154;9.198;2022-10-31T15:10:19;16.70;;;10.83;;
11113;SDS011;5610;52.154;9.198;2022-10-31T15:13:09;16.13;;;11.10;;
11113;SDS011;5610;52.154;9.198;2022-10-31T15:15:55;12.63;;;10.23;;
11113;SDS011;5610;52.154;9.198;2022-10-31T15:18:44;12.03;;;10.37;;
11113;SDS011;5610;52.154;9.198;2022-10-31T15:21:33;13.93;;;10.97;;
11113;SDS011;5610;52.154;9.198;2022-10-31T15:24:22;15.30;;;11.40;;
11113;SDS011;5610;52.154;9.198;2022-10-31T15:27:10;16.93;;;11.77;;
11113;SDS011;5610;52.154;9.198;2022-10-31T15:29:57;13.90;;;11.60;;
11113;SDS011;5610;52.154;9.198;2022-10-31T15:32:43;16.93;;;12.40;;
11113;SDS011;5610;52.154;9.198;2022-10-31T15:35:30;18.13;;;12.00;;
11113;SDS011;5610;52.154;9.198;2022-10-31T15:38:15;17.10;;;12.40;;
11113;SDS011;5610;52.154;9.198;2022-10-31T15:41:02;14.67;;;12.57;;
11113;SDS011;5610;52.154;9.198;2022-10-31T15:43:49;19.87;;;13.37;;
11113;SDS011;5610;52.154;9.198;2022-10-31T15:46:35;19.10;;;13.07;;
11113;SDS011;5610;52.154;9.198;2022-10-31T15:49:25;19.47;;;13.37;;
11113;SDS011;5610;52.154;9.198;2022-10-31T15:52:17;14.60;;;12.77;;
11113;SDS011;5610;52.154;9.198;2022-10-31T15:55:14;17.80;;;13.83;;
11113;SDS011;5610;52.154;9.198;2022-10-31T15:58:11;14.63;;;13.03;;
11113;SDS011;5610;52.154;9.198;2022-10-31T16:01:00;18.57;;;14.30;;
11113;SDS011;5610;52.154;9.198;2022-10-31T16:03:56;18.43;;;13.50;;
11113;SDS011;5610;52.154;9.198;2022-10-31T16:06:44;15.50;;;12.90;;
11113;SDS011;5610;52.154;9.198;2022-10-31T16:09:29;22.90;;;14.60;;
11113;SDS011;5610;52.154;9.198;2022-10-31T16:12:14;17.63;;;13.33;;
11113;SDS011;5610;52.154;9.198;2022-10-31T16:15:01;14.10;;;12.67;;
11113;SDS011;5610;52.154;9.198;2022-10-31T16:17:49;20.70;;;13.87;;
11113;SDS011;5610;52.154;9.198;2022-10-31T16:20:36;16.93;;;13.93;;
11113;SDS011;5610;52.154;9.198;2022-10-31T16:23:21;16.93;;;13.40;;
11113;SDS011;5610;52.154;9.198;2022-10-31T16:26:09;17.53;;;13.03;;
11113;SDS011;5610;52.154;9.198;2022-10-31T16:28:56;19.37;;;14.37;;
11113;SDS011;5610;52.154;9.198;2022-10-31T16:31:44;21.13;;;14.60;;
11113;SDS011;5610;52.154;9.198;2022-10-31T16:34:28;19.13;;;14.10;;
11113;SDS011;5610;52.154;9.198;2022-10-31T16:37:14;19.20;;;16.00;;
11113;SDS011;5610;52.154;9.198;2022-10-31T16:39:59;17.03;;;15.17;;
11113;SDS011;5610;52.154;9.198;2022-10-31T16:42:45;16.13;;;13.73;;
11113;SDS011;5610;52.154;9.198;2022-10-31T16:45:31;23.37;;;15.27;;
11113;SDS011;5610;52.154;9.198;2022-10-31T16:48:19;19.90;;;16.27;;
11113;SDS011;5610;52.154;9.198;2022-10-31T16:51:06;18.90;;;16.50;;
11113;SDS011;5610;52.154;9.198;2022-10-31T16:53:51;16.83;;;14.70;;
11113;SDS011;5610;52.154;9.198;2022-10-31T16:56:37;22.40;;;15.80;;
11113;SDS011;5610;52.154;9.198;2022-10-31T16:59:23;23.70;;;16.00;;
11113;SDS011;5610;52.154;9.198;2022-10-31T17:02:10;20.43;;;16.77;;
11113;SDS011;5610;52.154;9.198;2022-10-31T17:05:00;30.13;;;16.67;;
11113;SDS011;5610;52.154;9.198;2022-10-31T17:07:45;19.43;;;15.53;;